createdAt,value
2023-02-28T00:00:32.486Z,4.52
2023-02-28T00:02:59.487Z,4.51
2023-02-28T00:05:27.750Z,4.52
2023-02-28T00:07:54.555Z,4.48
2023-02-28T00:10:24.543Z,4.58
2023-02-28T00:12:52.653Z,4.59
2023-02-28T00:15:19.822Z,4.55
2023-02-28T00:17:46.865Z,4.53
2023-02-28T00:20:14.850Z,4.53
2023-02-28T00:22:44.116Z,4.57
2023-02-28T00:25:13.780Z,4.45
2023-02-28T00:27:41.424Z,4.49
2023-02-28T00:30:11.876Z,4.58
2023-02-28T00:32:39.002Z,4.60
2023-02-28T00:35:06.413Z,4.61
2023-02-28T00:37:33.419Z,4.60
2023-02-28T00:40:00.045Z,4.66
2023-02-28T00:42:26.806Z,4.66
2023-02-28T00:44:53.477Z,4.57
2023-02-28T00:47:20.064Z,4.60
2023-02-28T00:49:46.817Z,4.61
2023-02-28T00:52:13.452Z,4.63
2023-02-28T00:54:40.021Z,4.60
2023-02-28T00:57:06.627Z,4.68
2023-02-28T00:59:33.206Z,4.67
2023-02-28T01:01:59.938Z,4.63
2023-02-28T01:04:26.606Z,4.70
2023-02-28T01:06:53.287Z,4.73
2023-02-28T01:09:20.095Z,4.71
2023-02-28T01:11:46.760Z,4.73
2023-02-28T01:14:16.217Z,4.67
2023-02-28T01:16:43.147Z,4.67
2023-02-28T01:19:09.885Z,4.67
2023-02-28T01:21:37.157Z,4.67
2023-02-28T01:24:05.242Z,4.62
2023-02-28T01:26:31.931Z,4.62
2023-02-28T01:28:59.102Z,4.61
2023-02-28T01:31:26.476Z,4.65
2023-02-28T01:33:53.436Z,4.63
2023-02-28T01:36:23.097Z,4.60
2023-02-28T01:38:50.183Z,4.52
2023-02-28T01:41:25.608Z,4.50
2023-02-28T01:44:05.756Z,4.53
2023-02-28T01:46:34.989Z,4.52
2023-02-28T01:49:14.235Z,4.54
2023-02-28T01:51:51.691Z,4.54
2023-02-28T01:54:23.450Z,4.61
2023-02-28T01:56:55.848Z,4.60
2023-02-28T01:59:36.176Z,4.63
2023-02-28T02:02:03.517Z,4.56
2023-02-28T02:04:38.638Z,4.57
2023-02-28T02:07:05.852Z,4.60
2023-02-28T02:09:32.480Z,4.58
2023-02-28T02:12:07.204Z,4.57
2023-02-28T02:14:55.667Z,4.54
2023-02-28T02:17:41.297Z,4.54
2023-02-28T02:20:07.865Z,4.56
2023-02-28T02:23:18.638Z,4.70
2023-02-28T02:25:51.134Z,4.64
2023-02-28T02:28:36.490Z,4.57
2023-02-28T02:31:29.504Z,4.50
2023-02-28T02:34:21.006Z,4.47
2023-02-28T02:36:59.532Z,4.53
2023-02-28T02:39:32.450Z,4.47
2023-02-28T02:42:02.989Z,4.48
2023-02-28T02:44:40.784Z,4.52
2023-02-28T02:47:20.883Z,4.54
2023-02-28T02:49:54.738Z,4.55
2023-02-28T02:52:25.917Z,4.56
2023-02-28T02:54:56.668Z,4.56
2023-02-28T02:57:59.747Z,4.57
2023-02-28T03:00:32.546Z,4.52
2023-02-28T03:03:00.330Z,4.53
2023-02-28T03:05:42.965Z,4.45
2023-02-28T03:08:09.573Z,4.42
2023-02-28T03:10:43.504Z,4.42
2023-02-28T03:13:46.639Z,4.36
2023-02-28T03:16:31.386Z,4.42
2023-02-28T03:19:16.410Z,4.42
2023-02-28T03:21:55.160Z,4.41
2023-02-28T03:24:30.751Z,4.47
2023-02-28T03:27:05.677Z,4.49
2023-02-28T03:29:39.045Z,4.48
2023-02-28T03:32:17.527Z,4.51
2023-02-28T03:34:54.728Z,4.53
2023-02-28T03:37:25.143Z,4.48
2023-02-28T03:40:00.384Z,4.52
2023-02-28T03:42:30.653Z,4.49
2023-02-28T03:45:01.644Z,4.45
2023-02-28T03:47:50.325Z,4.45
2023-02-28T03:50:18.261Z,4.38
2023-02-28T03:52:53.459Z,4.32
2023-02-28T03:55:21.528Z,4.34
2023-02-28T03:58:10.293Z,4.31
2023-02-28T04:00:46.751Z,4.33
2023-02-28T04:03:13.658Z,4.38
2023-02-28T04:05:51.514Z,4.29
2023-02-28T04:08:18.594Z,4.25
2023-02-28T04:10:49.206Z,4.30
2023-02-28T04:13:15.806Z,4.31
2023-02-28T04:15:42.428Z,4.24
2023-02-28T04:18:09.574Z,4.17
2023-02-28T04:20:36.184Z,4.14
2023-02-28T04:23:02.782Z,4.18
2023-02-28T04:25:29.407Z,4.17
2023-02-28T04:27:55.977Z,4.08
2023-02-28T04:30:22.582Z,4.02
2023-02-28T04:32:49.212Z,4.00
2023-02-28T04:35:16.742Z,4.05
2023-02-28T04:37:43.441Z,4.08
2023-02-28T04:40:10.613Z,4.04
2023-02-28T04:42:37.261Z,4.02
2023-02-28T04:45:05.532Z,4.07
2023-02-28T04:47:32.199Z,3.99
2023-02-28T04:49:58.835Z,4.06
2023-02-28T04:52:25.528Z,4.07
2023-02-28T04:54:52.176Z,4.07
2023-02-28T04:57:18.762Z,4.04
2023-02-28T04:59:45.346Z,4.06
2023-02-28T05:02:12.007Z,4.05
2023-02-28T05:04:38.694Z,4.03
2023-02-28T05:07:05.464Z,4.04
2023-02-28T05:09:33.920Z,4.10
2023-02-28T05:12:00.547Z,4.16
2023-02-28T05:14:27.190Z,4.18
2023-02-28T05:16:53.827Z,4.19
2023-02-28T05:19:22.297Z,4.17
2023-02-28T05:21:56.216Z,4.17
2023-02-28T05:24:25.976Z,4.17
2023-02-28T05:26:54.590Z,4.10
2023-02-28T05:29:21.540Z,4.15
2023-02-28T05:31:48.525Z,4.16
2023-02-28T05:34:16.638Z,4.20
2023-02-28T05:36:43.397Z,4.18
2023-02-28T05:39:13.653Z,4.24
2023-02-28T05:41:44.677Z,4.16
2023-02-28T05:44:12.142Z,4.11
2023-02-28T05:46:39.423Z,4.13
2023-02-28T05:49:06.068Z,4.14
2023-02-28T05:51:32.842Z,4.06
2023-02-28T05:54:02.033Z,4.10
2023-02-28T05:56:29.297Z,4.03
2023-02-28T05:58:55.971Z,4.08
2023-02-28T06:01:40.530Z,4.12
2023-02-28T06:04:16.536Z,4.12
2023-02-28T06:06:50.416Z,4.16
2023-02-28T06:09:17.810Z,4.19
2023-02-28T06:11:44.512Z,4.22
2023-02-28T06:14:20.910Z,4.18
2023-02-28T06:16:47.638Z,4.11
2023-02-28T06:19:14.671Z,4.06
2023-02-28T06:21:41.448Z,4.02
2023-02-28T06:24:09.032Z,4.06
2023-02-28T06:26:35.893Z,4.10
2023-02-28T06:29:02.604Z,4.13
2023-02-28T06:31:30.334Z,4.00
2023-02-28T06:33:57.740Z,4.01
2023-02-28T06:36:24.844Z,3.99
2023-02-28T06:38:55.668Z,4.02
2023-02-28T06:41:24.885Z,4.07
2023-02-28T06:43:51.587Z,4.13
2023-02-28T06:46:18.210Z,4.11
2023-02-28T06:48:45.713Z,4.10
2023-02-28T06:51:15.750Z,4.10
2023-02-28T06:53:42.801Z,4.08
2023-02-28T06:56:12.238Z,4.10
2023-02-28T06:58:40.209Z,4.10
2023-02-28T07:01:08.424Z,4.17
2023-02-28T07:03:36.885Z,4.13
2023-02-28T07:06:05.102Z,4.17
2023-02-28T07:08:32.694Z,4.22
2023-02-28T07:10:59.756Z,4.21
2023-02-28T07:13:26.709Z,4.11
2023-02-28T07:16:02.049Z,4.16
2023-02-28T07:18:29.505Z,4.15
2023-02-28T07:20:56.153Z,4.17
2023-02-28T07:23:23.104Z,4.14
2023-02-28T07:25:51.072Z,4.15
2023-02-28T07:28:17.807Z,4.17
2023-02-28T07:30:44.453Z,4.22
2023-02-28T07:33:11.543Z,4.26
2023-02-28T07:35:38.401Z,4.33
2023-02-28T07:38:05.167Z,4.31
2023-02-28T07:40:32.337Z,4.26
2023-02-28T07:43:00.589Z,4.26
2023-02-28T07:45:27.993Z,4.30
2023-02-28T07:47:54.624Z,4.34
2023-02-28T07:50:21.315Z,4.41
2023-02-28T07:52:47.997Z,4.44
2023-02-28T07:55:15.230Z,4.45
2023-02-28T07:57:41.909Z,4.44
2023-02-28T08:00:12.336Z,4.33
2023-02-28T08:02:39.389Z,4.37
2023-02-28T08:05:07.301Z,4.42
2023-02-28T08:07:34.538Z,4.39
2023-02-28T08:10:01.615Z,4.47
2023-02-28T08:12:28.209Z,4.42
2023-02-28T08:14:55.044Z,4.31
2023-02-28T08:17:21.692Z,4.38
2023-02-28T08:19:48.372Z,4.47
2023-02-28T08:22:14.983Z,4.52
2023-02-28T08:24:44.818Z,4.55
2023-02-28T08:27:11.689Z,4.48
2023-02-28T08:29:39.389Z,4.59
2023-02-28T08:32:14.561Z,4.66
2023-02-28T08:34:48.122Z,4.67
2023-02-28T08:37:14.947Z,4.69
2023-02-28T08:39:41.820Z,4.76
2023-02-28T08:42:08.703Z,4.70
2023-02-28T08:44:35.483Z,4.64
2023-02-28T08:47:02.113Z,4.64
2023-02-28T08:49:29.663Z,4.66
2023-02-28T08:51:58.143Z,4.75
2023-02-28T08:54:25.366Z,4.76
2023-02-28T08:56:52.101Z,4.78
2023-02-28T08:59:18.709Z,4.80
2023-02-28T09:01:45.419Z,4.77
2023-02-28T09:04:14.474Z,4.75
2023-02-28T09:06:45.441Z,4.70
2023-02-28T09:09:12.088Z,4.70
2023-02-28T09:11:38.783Z,4.75
2023-02-28T09:14:05.527Z,4.87
2023-02-28T09:16:33.998Z,4.89
2023-02-28T09:19:01.655Z,4.92
2023-02-28T09:21:29.020Z,4.97
2023-02-28T09:23:56.042Z,5.04
2023-02-28T09:26:32.470Z,5.04
2023-02-28T09:29:05.947Z,5.04
2023-02-28T09:31:32.661Z,5.11
2023-02-28T09:34:00.445Z,5.18
2023-02-28T09:36:41.870Z,5.26
2023-02-28T09:39:11.798Z,5.28
2023-02-28T09:41:48.249Z,5.12
2023-02-28T09:44:26.154Z,5.17
2023-02-28T09:47:01.842Z,5.17
2023-02-28T09:49:55.048Z,5.30
2023-02-28T09:52:29.784Z,5.33
2023-02-28T09:54:57.321Z,5.20
2023-02-28T09:57:40.197Z,5.31
2023-02-28T10:00:19.090Z,5.30
2023-02-28T10:03:27.833Z,5.45
2023-02-28T10:06:06.735Z,5.39
2023-02-28T10:08:43.711Z,5.39
2023-02-28T10:11:14.656Z,5.58
2023-02-28T10:13:53.874Z,5.54
2023-02-28T10:16:34.682Z,5.71
2023-02-28T10:19:21.468Z,5.73
2023-02-28T10:21:55.684Z,5.67
2023-02-28T10:24:40.444Z,5.58
2023-02-28T10:27:20.419Z,5.62
2023-02-28T10:29:58.316Z,5.71
2023-02-28T10:32:31.377Z,5.74
2023-02-28T10:35:01.820Z,5.63
2023-02-28T10:37:29.490Z,5.67
2023-02-28T10:39:56.808Z,5.67
2023-02-28T10:42:29.592Z,5.53
2023-02-28T10:45:11.617Z,5.52
2023-02-28T10:47:57.062Z,5.48
2023-02-28T10:50:48.316Z,5.57
2023-02-28T10:53:26.815Z,5.71
2023-02-28T10:56:11.698Z,5.93
2023-02-28T10:58:56.966Z,5.94
2023-02-28T11:01:47.222Z,5.86
2023-02-28T11:04:20.391Z,5.73
2023-02-28T11:06:47.528Z,5.81
2023-02-28T11:09:35.980Z,5.77
2023-02-28T11:12:05.984Z,5.73
2023-02-28T11:14:41.031Z,5.79
2023-02-28T11:17:26.111Z,5.73
2023-02-28T11:19:57.237Z,5.69
2023-02-28T11:22:29.834Z,5.75
2023-02-28T11:25:00.551Z,5.76
2023-02-28T11:27:34.788Z,5.58
2023-02-28T11:30:01.907Z,5.44
2023-02-28T11:32:31.563Z,5.45
2023-02-28T11:35:18.083Z,5.47
2023-02-28T11:37:47.011Z,5.52
2023-02-28T11:40:25.904Z,5.51
2023-02-28T11:43:33.788Z,5.64
2023-02-28T11:46:19.003Z,5.65
2023-02-28T11:49:07.949Z,5.84
2023-02-28T11:51:52.755Z,5.97
2023-02-28T11:54:28.300Z,5.84
2023-02-28T11:57:04.285Z,5.76
2023-02-28T11:59:45.014Z,5.71
2023-02-28T12:02:25.332Z,5.86
2023-02-28T12:04:58.022Z,6.01
2023-02-28T12:07:30.603Z,5.75
2023-02-28T12:10:03.049Z,5.82
2023-02-28T12:12:40.164Z,5.83
2023-02-28T12:15:18.965Z,6.08
2023-02-28T12:18:08.969Z,6.08
2023-02-28T12:20:40.304Z,6.01
2023-02-28T12:23:23.201Z,5.94
2023-02-28T12:26:37.709Z,6.01
2023-02-28T12:29:24.337Z,5.99
2023-02-28T12:31:57.618Z,6.02
2023-02-28T12:34:32.407Z,6.13
2023-02-28T12:37:05.749Z,6.01
2023-02-28T12:39:49.776Z,6.14
2023-02-28T12:42:22.679Z,6.08
2023-02-28T12:44:55.284Z,6.10
2023-02-28T12:47:21.956Z,6.08
2023-02-28T12:49:52.192Z,6.11
2023-02-28T12:52:30.955Z,6.27
2023-02-28T12:55:07.138Z,6.33
2023-02-28T12:57:49.495Z,6.40
2023-02-28T13:00:21.825Z,6.53
2023-02-28T13:02:51.493Z,6.48
2023-02-28T13:05:28.944Z,6.52
2023-02-28T13:08:03.248Z,6.40
2023-02-28T13:10:41.637Z,6.36
2023-02-28T13:13:16.372Z,6.39
2023-02-28T13:16:03.545Z,6.41
2023-02-28T13:18:34.623Z,6.27
2023-02-28T13:21:02.406Z,6.31
2023-02-28T13:23:59.595Z,6.29
2023-02-28T13:26:32.313Z,6.42
2023-02-28T13:29:23.985Z,6.39
2023-02-28T13:32:11.926Z,6.51
2023-02-28T13:34:42.692Z,6.41
2023-02-28T13:37:24.557Z,6.34
2023-02-28T13:40:08.209Z,6.28
2023-02-28T13:42:38.377Z,6.41
2023-02-28T13:45:05.023Z,6.40
2023-02-28T13:47:52.158Z,6.36
2023-02-28T13:50:45.960Z,6.34
2023-02-28T13:53:12.650Z,6.41
2023-02-28T13:55:48.206Z,6.42
2023-02-28T13:58:37.262Z,6.43
2023-02-28T14:01:17.266Z,6.39
2023-02-28T14:03:59.728Z,6.44
2023-02-28T14:06:33.647Z,6.47
2023-02-28T14:09:12.969Z,6.56
2023-02-28T14:11:41.455Z,6.50
2023-02-28T14:14:10.150Z,6.55
2023-02-28T14:16:47.440Z,6.69
2023-02-28T14:20:03.238Z,6.72
2023-02-28T14:23:13.579Z,6.88
2023-02-28T14:26:04.521Z,7.00
2023-02-28T14:28:37.144Z,6.98
2023-02-28T14:31:43.531Z,6.89
2023-02-28T14:34:12.922Z,6.90
2023-02-28T14:36:43.365Z,6.76
2023-02-28T14:39:16.207Z,6.80
2023-02-28T14:41:44.382Z,6.76
2023-02-28T14:44:16.958Z,6.69
2023-02-28T14:46:45.218Z,6.64
2023-02-28T14:49:19.195Z,6.56
2023-02-28T14:51:46.208Z,6.55
2023-02-28T14:54:17.018Z,6.53
2023-02-28T14:56:43.940Z,6.52
2023-02-28T14:59:33.013Z,6.52
2023-02-28T15:02:31.221Z,6.53
2023-02-28T15:05:00.845Z,6.60
2023-02-28T15:07:31.312Z,6.59
2023-02-28T15:10:26.588Z,6.49
2023-02-28T15:13:02.979Z,6.53
2023-02-28T15:16:05.264Z,6.52
2023-02-28T15:19:04.282Z,6.59
2023-02-28T15:21:32.975Z,6.64
2023-02-28T15:24:04.548Z,6.60
2023-02-28T15:26:35.567Z,6.58
2023-02-28T15:29:16.517Z,6.60
2023-02-28T15:31:58.537Z,6.60
2023-02-28T15:34:42.350Z,6.52
2023-02-28T15:37:31.649Z,6.58
2023-02-28T15:40:25.763Z,6.49
2023-02-28T15:43:15.027Z,6.46
2023-02-28T15:45:59.018Z,6.48
2023-02-28T15:48:38.311Z,6.53
2023-02-28T15:51:15.648Z,6.55
2023-02-28T15:53:49.309Z,6.58
2023-02-28T15:56:34.883Z,6.64
2023-02-28T15:59:04.733Z,6.68
2023-02-28T16:01:35.000Z,6.66
2023-02-28T16:04:05.750Z,6.73
2023-02-28T16:06:43.350Z,6.65
2023-02-28T16:09:17.482Z,6.66
2023-02-28T16:11:50.627Z,6.48
2023-02-28T16:14:24.055Z,6.42
2023-02-28T16:16:54.040Z,6.30
2023-02-28T16:19:21.633Z,6.32
2023-02-28T16:21:48.752Z,6.26
2023-02-28T16:24:15.685Z,6.22
2023-02-28T16:26:47.980Z,6.10
2023-02-28T16:29:25.726Z,6.07
2023-02-28T16:31:52.816Z,5.94
2023-02-28T16:34:19.423Z,5.87
2023-02-28T16:36:49.017Z,5.81
2023-02-28T16:39:15.772Z,5.75
2023-02-28T16:41:46.995Z,5.77
2023-02-28T16:44:31.521Z,5.76
2023-02-28T16:47:00.401Z,5.79
2023-02-28T16:49:27.089Z,5.81
2023-02-28T16:51:54.405Z,5.81
2023-02-28T16:54:21.141Z,5.92
2023-02-28T16:56:49.584Z,5.87
2023-02-28T16:59:20.979Z,5.91
2023-02-28T17:01:47.707Z,5.88
2023-02-28T17:04:15.284Z,5.91
2023-02-28T17:06:41.977Z,5.94
2023-02-28T17:09:19.975Z,5.90
2023-02-28T17:11:47.716Z,5.87
2023-02-28T17:14:15.174Z,5.90
2023-02-28T17:16:43.089Z,5.82
2023-02-28T17:19:16.405Z,5.78
2023-02-28T17:21:44.050Z,5.76
2023-02-28T17:24:16.623Z,5.79
2023-02-28T17:26:45.845Z,5.83
2023-02-28T17:29:18.675Z,5.81
2023-02-28T17:31:45.324Z,5.84
2023-02-28T17:34:12.719Z,5.87
2023-02-28T17:36:39.370Z,5.88
2023-02-28T17:39:12.160Z,5.90
2023-02-28T17:41:38.797Z,5.85
2023-02-28T17:44:05.596Z,5.87
2023-02-28T17:46:33.651Z,5.89
2023-02-28T17:49:00.936Z,5.82
2023-02-28T17:51:27.772Z,5.80
2023-02-28T17:53:54.433Z,5.78
2023-02-28T17:56:27.389Z,5.68
2023-02-28T17:58:56.109Z,5.69
2023-02-28T18:01:25.415Z,5.64
2023-02-28T18:03:52.280Z,5.62
2023-02-28T18:06:50.715Z,5.41
2023-02-28T18:09:21.073Z,5.48
2023-02-28T18:11:49.173Z,5.46
2023-02-28T18:14:17.298Z,5.39
2023-02-28T18:16:44.993Z,5.29
2023-02-28T18:19:15.758Z,5.23
2023-02-28T18:21:43.362Z,5.28
2023-02-28T18:24:10.614Z,5.26
2023-02-28T18:26:38.426Z,5.25
2023-02-28T18:29:06.480Z,5.21
2023-02-28T18:31:33.781Z,5.24
2023-02-28T18:34:01.138Z,5.31
2023-02-28T18:36:28.971Z,5.32
2023-02-28T18:38:55.841Z,5.38
2023-02-28T18:41:22.711Z,5.40
2023-02-28T18:43:50.963Z,5.44
2023-02-28T18:46:19.719Z,5.43
2023-02-28T18:48:47.358Z,5.46
2023-02-28T18:51:19.942Z,5.50
2023-02-28T18:53:46.915Z,5.59
2023-02-28T18:56:16.387Z,5.56
2023-02-28T18:58:43.646Z,5.48
2023-02-28T19:01:18.634Z,5.52
2023-02-28T19:03:45.963Z,5.43
2023-02-28T19:06:12.937Z,5.38
2023-02-28T19:08:39.913Z,5.35
2023-02-28T19:11:11.229Z,5.42
2023-02-28T19:13:38.240Z,5.39
2023-02-28T19:16:07.102Z,5.42
2023-02-28T19:18:34.452Z,5.40
2023-02-28T19:21:01.641Z,5.43
2023-02-28T19:23:28.662Z,5.31
2023-02-28T19:25:56.606Z,5.31
2023-02-28T19:28:24.179Z,5.30
2023-02-28T19:30:53.039Z,5.24
2023-02-28T19:33:20.479Z,5.23
2023-02-28T19:35:48.457Z,5.31
2023-02-28T19:38:15.798Z,5.30
2023-02-28T19:40:42.535Z,5.25
2023-02-28T19:43:10.937Z,5.28
2023-02-28T19:45:38.543Z,5.28
2023-02-28T19:48:05.656Z,5.25
2023-02-28T19:50:32.584Z,5.32
2023-02-28T19:53:00.560Z,5.29
2023-02-28T19:55:27.540Z,5.22
2023-02-28T19:57:54.125Z,5.26
2023-02-28T20:00:20.979Z,5.14
2023-02-28T20:02:47.637Z,5.15
2023-02-28T20:05:14.262Z,5.19
2023-02-28T20:07:40.927Z,5.21
2023-02-28T20:10:07.969Z,5.18
2023-02-28T20:12:34.691Z,5.17
2023-02-28T20:15:01.427Z,5.15
2023-02-28T20:17:28.975Z,5.06
2023-02-28T20:19:55.596Z,5.03
2023-02-28T20:22:22.209Z,5.07
2023-02-28T20:24:48.832Z,5.07
2023-02-28T20:27:15.821Z,4.99
2023-02-28T20:29:42.445Z,5.09
2023-02-28T20:32:09.172Z,5.03
2023-02-28T20:34:36.129Z,5.04
2023-02-28T20:37:02.879Z,5.06
2023-02-28T20:39:29.648Z,5.01
2023-02-28T20:41:56.231Z,5.03
2023-02-28T20:44:22.877Z,5.00
2023-02-28T20:46:49.542Z,5.00
2023-02-28T20:49:16.310Z,5.01
2023-02-28T20:51:43.044Z,4.99
2023-02-28T20:54:11.803Z,4.95
2023-02-28T20:56:38.573Z,4.91
2023-02-28T20:59:05.667Z,5.01
2023-02-28T21:01:32.588Z,4.99
2023-02-28T21:04:02.879Z,4.93
2023-02-28T21:06:32.547Z,4.90
2023-02-28T21:08:59.730Z,4.94
2023-02-28T21:11:32.601Z,4.89
2023-02-28T21:14:01.833Z,4.88
2023-02-28T21:16:31.960Z,4.88
2023-02-28T21:19:04.140Z,4.89
2023-02-28T21:21:38.617Z,4.82
2023-02-28T21:24:06.518Z,4.87
2023-02-28T21:26:33.720Z,4.86
2023-02-28T21:29:02.367Z,4.90
2023-02-28T21:31:31.774Z,4.94
2023-02-28T21:34:00.159Z,4.79
2023-02-28T21:36:35.577Z,4.81
2023-02-28T21:39:12.788Z,4.77
2023-02-28T21:41:39.643Z,4.76
2023-02-28T21:44:06.283Z,4.78
2023-02-28T21:46:33.872Z,4.75
2023-02-28T21:49:00.706Z,4.78
2023-02-28T21:51:31.184Z,4.74
2023-02-28T21:53:59.499Z,4.80
2023-02-28T21:56:29.299Z,4.82
2023-02-28T21:59:00.332Z,4.74
2023-02-28T22:01:38.339Z,4.80
2023-02-28T22:04:07.866Z,4.70
2023-02-28T22:06:37.529Z,4.65
2023-02-28T22:09:07.527Z,4.64
2023-02-28T22:11:37.577Z,4.65
2023-02-28T22:14:04.748Z,4.62
2023-02-28T22:16:40.845Z,4.67
2023-02-28T22:19:16.462Z,4.67
2023-02-28T22:21:43.571Z,4.75
2023-02-28T22:24:10.726Z,4.76
2023-02-28T22:26:38.091Z,4.66
2023-02-28T22:29:04.902Z,4.61
2023-02-28T22:31:33.995Z,4.54
2023-02-28T22:34:05.934Z,4.58
2023-02-28T22:36:33.321Z,4.56
2023-02-28T22:39:02.790Z,4.58
2023-02-28T22:41:30.336Z,4.55
2023-02-28T22:44:00.294Z,4.52
2023-02-28T22:46:29.405Z,4.51
2023-02-28T22:48:58.758Z,4.42
2023-02-28T22:51:26.608Z,4.41
2023-02-28T22:53:54.932Z,4.42
2023-02-28T22:56:23.663Z,4.47
2023-02-28T22:58:55.617Z,4.50
2023-02-28T23:01:25.131Z,4.41
2023-02-28T23:03:52.568Z,4.38
2023-02-28T23:06:29.513Z,4.49
2023-02-28T23:09:00.154Z,4.40
2023-02-28T23:11:53.359Z,4.43
2023-02-28T23:14:21.248Z,4.35
2023-02-28T23:16:50.706Z,4.41
2023-02-28T23:19:22.196Z,4.42
2023-02-28T23:21:49.173Z,4.40
2023-02-28T23:24:18.782Z,4.41
2023-02-28T23:26:49.012Z,4.47
2023-02-28T23:29:17.691Z,4.45
2023-02-28T23:31:44.679Z,4.53
2023-02-28T23:34:13.404Z,4.50
2023-02-28T23:36:46.161Z,4.52
2023-02-28T23:39:16.191Z,4.52
2023-02-28T23:41:43.326Z,4.51
2023-02-28T23:44:13.703Z,4.54
2023-02-28T23:46:40.537Z,4.55
2023-02-28T23:49:07.163Z,4.53
2023-02-28T23:51:33.873Z,4.55
2023-02-28T23:54:02.987Z,4.58
2023-02-28T23:56:30.909Z,4.56
2023-02-28T23:58:58.267Z,4.51
